Pagrindinis puslapis
METAR-TAF:

METAR-TAF

Oro uostai :

Trapanis, Italija

platuma: 37-55N, ilguma: 012-30E, Aukštis: 7 m

Dabartinis oras

Ataskaita buvo paskelbta 1 valandą ir 0 minutes, ne 22:55 UTC
Vėjas 4 kt iš Rytų/Šiaurės Rytų
Temperatūra 11°C
Drėgmė 94%
Slėgis 1025 hPa
Matomumas 10 km arba daugiau
nėra debesų žemiau 1500 m ir nėra kamuolinių lietaus debesų

METAR: LICT 072255Z 07004KT CAVOK 11/10 Q1025 RMK SKC VIS MIN 9999 WIND THR13 04004KT BLU

Laikas: 01:55 (23:55 UTC)

Prognozė

Ataskaita buvo paskelbta 55 minutes, ne 23:00 UTC
Prognozė galioja nuo 08 metu 00 UTC su 08 metu 09 UTC
Vėjas 5 kt iš Rytų
Matomumas 10 km arba daugiau
nėra debesų žemiau 1500 m ir nėra kamuolinių lietaus debesų
Tapsmas
nuo 08 metu 07 UTC su 08 metu 09 UTC
Vėjas 7 kt iš Pietvakarių

TAF: LICT 072300Z 0800/0809 09005KT CAVOK BECMG 0807/0809 23007KT

Orai ataskaitas ir orų prognozės (METAR, TAF).

turimą stotys yra geltonos ir raudonos taškus žemėlapyje.

Perkelti pele per norėdami pamatyti stoties vardą.

Tada spustelėkite, norėdami matyti oro stebėjimo ir prognozės.

Norėdami pakeisti žemėlapį: spustelėkite ant žalios mygtukų su juodo kryžiaus žemyn,; žalią mygtuką su brūkšneliu, jei norite nutolinti; arba žalių rodyklių gretimoms žemėlapius.


METAR-TAF: